Time;durP1;ratioP1;P1;durP2;ratioP2;P2;SDS_P1;SDS_P2;PMS_P1;PMS_P2;Temp;Humidity;BMP_temperature;BMP_pressure;BME280_temperature;BME280_humidity;BME280_pressure;Samples;Min_cycle;Max_cycle;Signal;HPM_P1;HPM_P2
2024/02/15 00:00:04;;;;;;;1.63;1.53;;;16.30;1.00;;;;;;2611649;54;20419;-62
2024/02/15 00:02:30;;;;;;;1.60;1.50;;;16.30;1.00;;;;;;2612335;47;20431;-63
2024/02/15 00:04:56;;;;;;;1.50;1.40;;;16.30;1.00;;;;;;2611987;54;20435;-62
2024/02/15 00:07:22;;;;;;;2.33;2.13;;;16.30;1.00;;;;;;2612037;54;20409;-61
2024/02/15 00:09:48;;;;;;;1.53;1.43;;;16.30;1.00;;;;;;2612837;54;20438;-62
2024/02/15 00:12:14;;;;;;;1.97;1.53;;;16.30;1.00;;;;;;2613112;54;20427;-63
2024/02/15 00:14:40;;;;;;;1.63;1.53;;;16.30;1.00;;;;;;2611929;54;20416;-64
2024/02/15 00:17:06;;;;;;;1.50;1.40;;;16.30;1.00;;;;;;2613890;54;20208;-64
2024/02/15 00:19:31;;;;;;;1.63;1.50;;;16.30;1.00;;;;;;2613621;54;20136;-63
2024/02/15 00:21:57;;;;;;;1.30;1.20;;;16.30;1.00;;;;;;2613766;54;20169;-63
2024/02/15 00:24:24;;;;;;;1.47;1.37;;;16.30;1.00;;;;;;2612780;54;20148;-66
2024/02/15 00:26:50;;;;;;;1.40;1.30;;;16.30;1.00;;;;;;2613631;54;20177;-66
2024/02/15 00:29:16;;;;;;;1.50;1.40;;;16.30;1.00;;;;;;2613392;54;20440;-64
2024/02/15 00:31:42;;;;;;;1.40;1.30;;;16.30;1.00;;;;;;2613145;54;20525;-66
2024/02/15 00:34:08;;;;;;;1.50;1.40;;;16.30;1.00;;;;;;2613126;54;20160;-66
2024/02/15 00:36:34;;;;;;;1.47;1.37;;;16.30;1.00;;;;;;2613769;54;20183;-66
2024/02/15 00:38:59;;;;;;;2.03;1.83;;;16.30;1.00;;;;;;2613972;39;20753;-65
2024/02/15 00:41:25;;;;;;;1.60;1.50;;;16.30;1.00;;;;;;2613242;54;20178;-66
2024/02/15 00:43:51;;;;;;;1.27;1.17;;;16.30;1.00;;;;;;2613517;54;20184;-65
2024/02/15 00:46:16;;;;;;;2.23;1.70;;;16.30;1.00;;;;;;2613409;54;20199;-66
2024/02/15 00:48:42;;;;;;;1.37;1.27;;;16.30;1.00;;;;;;2613849;54;20175;-65
2024/02/15 00:51:07;;;;;;;1.57;1.47;;;16.30;1.00;;;;;;2613491;54;20170;-66
2024/02/15 00:53:33;;;;;;;1.33;1.23;;;16.30;1.00;;;;;;2612939;54;20151;-67
2024/02/15 00:55:59;;;;;;;1.67;1.50;;;16.30;1.00;;;;;;2612912;54;20178;-66
2024/02/15 00:58:26;;;;;;;1.53;1.30;;;16.30;1.00;;;;;;2612837;47;20177;-66
2024/02/15 01:00:53;;;;;;;1.53;1.40;;;16.30;1.00;;;;;;2612735;54;20439;-66
2024/02/15 01:03:19;;;;;;;1.80;1.60;;;16.30;1.00;;;;;;2613330;54;20427;-60
2024/02/15 01:05:45;;;;;;;1.50;1.40;;;16.30;1.00;;;;;;2613195;54;20408;-60
2024/02/15 01:08:11;;;;;;;3.97;1.40;;;16.30;1.00;;;;;;2613364;39;20858;-60
2024/02/15 01:10:37;;;;;;;1.40;1.30;;;16.30;1.00;;;;;;2612755;54;20391;-60
2024/02/15 01:13:03;;;;;;;1.40;1.30;;;16.30;1.00;;;;;;2613439;54;20180;-59
2024/02/15 01:15:29;;;;;;;1.40;1.30;;;16.30;1.00;;;;;;2613503;54;20938;-60
2024/02/15 01:17:55;;;;;;;1.90;1.70;;;16.30;1.00;;;;;;2612632;54;20166;-60
2024/02/15 01:20:21;;;;;;;1.50;1.40;;;16.30;1.00;;;;;;2613165;54;20428;-60
2024/02/15 01:22:46;;;;;;;1.40;1.30;;;16.30;1.00;;;;;;2613494;54;20403;-61
2024/02/15 01:25:12;;;;;;;1.70;1.40;;;16.30;1.00;;;;;;2613307;47;20197;-65
2024/02/15 01:27:38;;;;;;;1.50;1.40;;;16.30;1.00;;;;;;2613156;54;20173;-66
2024/02/15 01:30:05;;;;;;;1.30;1.20;;;16.30;1.00;;;;;;2612702;54;20174;-66
2024/02/15 01:32:30;;;;;;;2.03;1.60;;;16.20;1.00;;;;;;2614293;39;20857;-66
2024/02/15 01:34:56;;;;;;;1.40;1.30;;;16.30;1.00;;;;;;2613275;54;20406;-58
2024/02/15 01:37:22;;;;;;;2.40;1.70;;;16.30;1.00;;;;;;2613181;54;20175;-59
2024/02/15 01:39:49;;;;;;;1.60;1.50;;;16.30;1.00;;;;;;2613187;54;20402;-59
2024/02/15 01:42:14;;;;;;;1.60;1.40;;;16.30;1.00;;;;;;2613208;54;20396;-58
2024/02/15 01:44:40;;;;;;;1.63;1.40;;;16.30;1.00;;;;;;2613145;47;20420;-60
2024/02/15 01:47:08;;;;;;;1.87;1.63;;;16.30;1.00;;;;;;2613119;54;20208;-59
2024/02/15 01:49:34;;;;;;;1.60;1.50;;;16.30;1.00;;;;;;2613196;54;20417;-59
2024/02/15 01:52:02;;;;;;;1.47;1.37;;;16.30;1.00;;;;;;2613786;39;20773;-60
2024/02/15 01:54:28;;;;;;;1.40;1.30;;;16.30;1.00;;;;;;2612863;39;20556;-59
2024/02/15 01:56:55;;;;;;;1.30;1.20;;;16.30;1.00;;;;;;2612882;54;20387;-62
2024/02/15 01:59:23;;;;;;;1.40;1.30;;;16.30;1.00;;;;;;2613265;54;20408;-59
2024/02/15 02:01:49;;;;;;;1.50;1.40;;;16.30;1.00;;;;;;2613053;54;20424;-60
2024/02/15 02:04:15;;;;;;;1.40;1.30;;;16.30;1.00;;;;;;2612658;47;20428;-59
2024/02/15 02:06:41;;;;;;;1.47;1.27;;;16.30;1.00;;;;;;2612718;54;20450;-59
2024/02/15 02:09:12;;;;;;;1.63;1.53;;;16.30;1.00;;;;;;2613133;54;20283;-59
2024/02/15 02:11:38;;;;;;;1.50;1.40;;;16.30;1.00;;;;;;2612188;54;20264;-59
2024/02/15 02:14:04;;;;;;;2.07;1.40;;;16.30;1.00;;;;;;2612991;47;20420;-62
2024/02/15 02:16:35;;;;;;;3.57;1.30;;;16.30;1.00;;;;;;2613228;54;20176;-62
2024/02/15 02:19:01;;;;;;;1.50;1.30;;;16.30;1.00;;;;;;2613546;54;20163;-63
2024/02/15 02:21:30;;;;;;;3.87;1.80;;;16.30;1.00;;;;;;2614094;39;20899;-63
2024/02/15 02:23:57;;;;;;;1.50;1.40;;;16.30;1.00;;;;;;2612443;54;20427;-63
2024/02/15 02:26:24;;;;;;;1.60;1.50;;;16.30;1.00;;;;;;2613162;54;20467;-63
2024/02/15 02:28:50;;;;;;;1.30;1.20;;;16.30;1.00;;;;;;2613843;39;20768;-63
2024/02/15 02:31:16;;;;;;;1.40;1.30;;;16.30;1.00;;;;;;2612742;54;20426;-63
2024/02/15 02:33:46;;;;;;;1.60;1.50;;;16.30;1.00;;;;;;2613462;54;20408;-67
2024/02/15 02:36:12;;;;;;;1.63;1.53;;;16.30;1.00;;;;;;2613111;54;20150;-67
2024/02/15 02:38:38;;;;;;;2.27;1.90;;;16.30;1.00;;;;;;2613166;54;20507;-67
2024/02/15 02:41:04;;;;;;;2.07;1.70;;;16.30;1.00;;;;;;2612418;54;20163;-66
2024/02/15 02:43:30;;;;;;;1.70;1.23;;;16.30;1.00;;;;;;2613217;54;20159;-65
2024/02/15 02:45:55;;;;;;;1.90;1.70;;;16.30;1.00;;;;;;2612965;46;20435;-67
2024/02/15 02:48:21;;;;;;;1.80;1.70;;;16.30;1.00;;;;;;2612878;54;20221;-67
2024/02/15 02:50:48;;;;;;;1.40;1.30;;;16.30;1.00;;;;;;2613326;54;20247;-67
2024/02/15 02:53:15;;;;;;;1.70;1.53;;;16.30;1.00;;;;;;2613525;54;20259;-68
2024/02/15 02:55:43;;;;;;;1.50;1.40;;;16.30;1.00;;;;;;2612757;47;20476;-68
2024/02/15 02:58:09;;;;;;;1.73;1.63;;;16.30;1.00;;;;;;2612975;54;20491;-68
2024/02/15 03:00:35;;;;;;;2.37;1.40;;;16.30;1.00;;;;;;2611977;47;20464;-68
2024/02/15 03:03:01;;;;;;;1.50;1.40;;;16.30;1.00;;;;;;2613103;54;20271;-68
2024/02/15 03:05:27;;;;;;;2.10;1.90;;;16.30;1.00;;;;;;2612893;54;20172;-67
2024/02/15 03:07:52;;;;;;;1.33;1.23;;;16.30;1.00;;;;;;2612434;39;20970;-66
2024/02/15 03:10:18;;;;;;;1.83;1.70;;;16.30;1.00;;;;;;2613233;54;20416;-67
2024/02/15 03:12:47;;;;;;;1.57;1.47;;;16.30;1.00;;;;;;2613007;47;20294;-67
2024/02/15 03:15:13;;;;;;;1.63;1.40;;;16.30;1.00;;;;;;2613218;54;20151;-66
2024/02/15 03:17:40;;;;;;;1.90;1.50;;;16.30;1.00;;;;;;2612552;54;20403;-67
2024/02/15 03:20:23;;;;;;;1.70;1.60;;;16.30;1.00;;;;;;2612696;47;20422;-67
2024/02/15 03:22:57;;;;;;;2.20;1.47;;;16.30;1.00;;;;;;2612725;54;20400;-67
2024/02/15 03:25:24;;;;;;;1.60;1.50;;;16.30;1.00;;;;;;2613171;39;20814;-62
2024/02/15 03:27:54;;;;;;;1.70;1.60;;;16.30;1.00;;;;;;2613433;39;20809;-62
2024/02/15 03:30:20;;;;;;;2.27;1.57;;;16.30;1.00;;;;;;2612423;54;20526;-62
2024/02/15 03:32:52;;;;;;;2.23;1.40;;;16.30;1.00;;;;;;2612809;54;20484;-63
2024/02/15 03:35:19;;;;;;;2.00;1.50;;;16.30;1.00;;;;;;2612901;39;20505;-63
2024/02/15 03:37:45;;;;;;;1.37;1.27;;;16.30;1.00;;;;;;2612683;54;20420;-62
2024/02/15 03:40:11;;;;;;;2.07;1.97;;;16.30;1.00;;;;;;2613534;39;20784;-63
2024/02/15 03:42:37;;;;;;;1.43;1.30;;;16.30;1.00;;;;;;2612694;54;20166;-62
2024/02/15 03:45:06;;;;;;;1.60;1.50;;;16.30;1.00;;;;;;2612925;54;20419;-64
2024/02/15 03:47:33;;;;;;;1.80;1.60;;;16.30;1.00;;;;;;2613070;54;20281;-64
2024/02/15 03:49:59;;;;;;;1.37;1.27;;;16.30;1.00;;;;;;2612567;54;20447;-64
2024/02/15 03:52:24;;;;;;;1.50;1.40;;;16.30;1.00;;;;;;2612427;54;20431;-63
2024/02/15 03:54:50;;;;;;;1.33;1.23;;;16.30;1.00;;;;;;2612667;54;20511;-71
2024/02/15 03:57:17;;;;;;;1.63;1.50;;;16.30;1.00;;;;;;2612627;47;21008;-72
2024/02/15 03:59:42;;;;;;;1.60;1.43;;;16.30;1.00;;;;;;2612195;54;20203;-72
2024/02/15 04:02:14;;;;;;;1.50;1.27;;;16.30;1.00;;;;;;2612453;54;20432;-72
2024/02/15 04:04:42;;;;;;;1.43;1.30;;;16.30;1.00;;;;;;2612847;54;20259;-72
2024/02/15 04:07:08;;;;;;;1.23;1.13;;;16.30;1.00;;;;;;2612549;54;20407;-72
2024/02/15 04:09:35;;;;;;;1.60;1.40;;;16.30;1.00;;;;;;2613211;54;20550;-71
2024/02/15 04:12:01;;;;;;;1.70;1.60;;;16.30;1.00;;;;;;2612760;54;20480;-72
2024/02/15 04:14:27;;;;;;;1.67;1.30;;;16.30;1.00;;;;;;2613571;54;20448;-72
2024/02/15 04:16:53;;;;;;;2.00;1.27;;;16.30;1.00;;;;;;2613285;54;20446;-72
2024/02/15 04:19:19;;;;;;;1.57;1.43;;;16.30;1.00;;;;;;2612975;54;20510;-73
2024/02/15 04:21:47;;;;;;;1.20;1.10;;;16.30;1.00;;;;;;2613091;54;20984;-72
2024/02/15 04:24:12;;;;;;;2.07;1.87;;;16.30;1.00;;;;;;2613125;54;20424;-72
2024/02/15 04:26:38;;;;;;;2.07;1.20;;;16.30;1.00;;;;;;2612929;54;20388;-72
2024/02/15 04:29:04;;;;;;;1.20;1.07;;;16.30;1.00;;;;;;2612117;54;20684;-73
2024/02/15 04:31:31;;;;;;;1.10;1.00;;;16.30;1.00;;;;;;2613081;54;20500;-72
2024/02/15 04:33:56;;;;;;;1.87;1.33;;;16.30;1.00;;;;;;2612603;54;20155;-63
2024/02/15 04:36:26;;;;;;;2.10;1.67;;;16.30;1.00;;;;;;2612535;54;20524;-62
2024/02/15 04:38:53;;;;;;;1.33;1.20;;;16.30;1.00;;;;;;2613159;54;20784;-63
2024/02/15 04:41:24;;;;;;;1.17;1.07;;;16.30;1.00;;;;;;2612740;54;20971;-62
2024/02/15 04:43:51;;;;;;;2.90;1.63;;;16.30;1.00;;;;;;2612626;39;20867;-62
2024/02/15 04:46:17;;;;;;;1.70;1.60;;;16.30;1.00;;;;;;2612739;47;20450;-62
2024/02/15 04:48:42;;;;;;;3.03;1.90;;;16.30;1.00;;;;;;2612016;47;20450;-62
2024/02/15 04:51:10;;;;;;;3.53;1.37;;;16.30;1.00;;;;;;2612191;39;20687;-61
2024/02/15 04:53:38;;;;;;;1.70;1.60;;;16.30;1.00;;;;;;2612247;54;20677;-65
2024/02/15 04:56:13;;;;;;;2.17;1.97;;;16.30;1.00;;;;;;2612065;54;20429;-66
2024/02/15 04:58:45;;;;;;;1.73;1.60;;;16.30;1.00;;;;;;2611349;54;20398;-66
2024/02/15 05:01:20;;;;;;;2.13;1.50;;;16.30;1.00;;;;;;2612925;54;20471;-67
2024/02/15 05:03:45;;;;;;;3.63;1.23;;;16.30;1.00;;;;;;2611746;47;20423;-68
2024/02/15 05:06:12;;;;;;;1.67;1.40;;;16.30;1.00;;;;;;2613859;54;20422;-66
2024/02/15 05:08:42;;;;;;;1.50;1.40;;;16.30;1.00;;;;;;2613571;54;20155;-67
2024/02/15 05:11:19;;;;;;;1.10;1.00;;;16.30;1.00;;;;;;2613158;46;20420;-67
2024/02/15 05:13:45;;;;;;;2.47;1.60;;;16.30;1.00;;;;;;2613261;54;20430;-68
2024/02/15 05:16:11;;;;;;;1.63;1.53;;;16.30;1.00;;;;;;2613853;54;20409;-67
2024/02/15 05:18:39;;;;;;;1.63;1.40;;;16.30;1.00;;;;;;2613289;47;20340;-67
2024/02/15 05:21:09;;;;;;;1.30;1.10;;;16.30;1.00;;;;;;2613531;39;20745;-67
2024/02/15 05:23:39;;;;;;;4.10;1.23;;;16.30;1.00;;;;;;2612535;54;20905;-67
2024/02/15 05:26:06;;;;;;;1.23;1.13;;;16.30;1.00;;;;;;2613515;54;21041;-67
2024/02/15 05:28:32;;;;;;;1.57;1.40;;;16.30;1.00;;;;;;2612855;54;20468;-66
2024/02/15 05:31:19;;;;;;;5.23;1.87;;;16.30;1.00;;;;;;2612977;54;20486;-66
2024/02/15 05:33:52;;;;;;;1.70;1.60;;;16.30;1.00;;;;;;2612830;54;20403;-67
2024/02/15 05:36:22;;;;;;;1.80;1.10;;;16.30;1.00;;;;;;2613299;54;20401;-67
2024/02/15 05:38:50;;;;;;;1.23;1.13;;;16.30;1.00;;;;;;2613837;47;20419;-66
2024/02/15 05:41:16;;;;;;;1.97;1.53;;;16.30;1.00;;;;;;2611889;54;20431;-66
2024/02/15 05:43:41;;;;;;;1.13;0.80;;;16.30;1.00;;;;;;2612561;54;20461;-67
2024/02/15 05:46:08;;;;;;;1.37;1.27;;;16.30;1.00;;;;;;2613390;54;20166;-67
2024/02/15 05:48:37;;;;;;;1.20;1.10;;;16.30;1.00;;;;;;2612646;54;20284;-67
2024/02/15 05:51:04;;;;;;;1.20;1.10;;;16.30;1.00;;;;;;2613176;54;20960;-68
2024/02/15 05:53:30;;;;;;;1.60;1.23;;;16.30;1.00;;;;;;2612184;54;20399;-67
2024/02/15 05:55:59;;;;;;;1.10;1.00;;;16.30;1.00;;;;;;2612938;54;20419;-67
2024/02/15 05:58:25;;;;;;;1.90;1.10;;;16.30;1.00;;;;;;2612469;54;20397;-67
2024/02/15 06:00:51;;;;;;;1.30;1.20;;;16.30;1.00;;;;;;2612340;54;20427;-67
2024/02/15 06:03:17;;;;;;;1.17;1.07;;;16.30;1.00;;;;;;2612842;54;20152;-67
2024/02/15 06:05:44;;;;;;;1.70;1.60;;;16.30;1.00;;;;;;2613702;39;20816;-67
2024/02/15 06:08:13;;;;;;;1.50;1.40;;;16.30;1.00;;;;;;2613037;54;20160;-67
2024/02/15 06:10:40;;;;;;;1.43;1.10;;;16.30;1.00;;;;;;2613117;47;20392;-67
2024/02/15 06:13:06;;;;;;;1.07;0.97;;;16.30;1.00;;;;;;2612413;54;20427;-66
2024/02/15 06:15:31;;;;;;;1.43;1.20;;;16.30;1.00;;;;;;2612557;54;20432;-62
2024/02/15 06:17:57;;;;;;;1.70;1.00;;;16.30;1.00;;;;;;2613302;47;21015;-62
2024/02/15 06:20:24;;;;;;;1.73;1.60;;;16.30;1.00;;;;;;2613303;54;20171;-61
2024/02/15 06:22:51;;;;;;;1.60;1.50;;;16.30;1.00;;;;;;2613433;39;20827;-63
2024/02/15 06:25:20;;;;;;;2.37;1.00;;;16.30;1.00;;;;;;2613204;39;21012;-62
2024/02/15 06:27:47;;;;;;;1.20;1.10;;;16.30;1.00;;;;;;2612801;47;20420;-63
2024/02/15 06:41:12;;;;;;;1.30;1.20;;;16.30;1.00;;;;;;2612829;54;21002;-63
2024/02/15 06:43:39;;;;;;;1.20;1.10;;;16.30;1.00;;;;;;2612083;54;20440;-62
2024/02/15 06:46:14;;;;;;;2.10;1.17;;;16.30;1.00;;;;;;2613054;39;20735;-63
2024/02/15 06:48:44;;;;;;;1.63;1.53;;;16.30;1.00;;;;;;2613075;54;20443;-62
2024/02/15 06:51:14;;;;;;;4.00;1.40;;;16.30;1.00;;;;;;2612849;54;20400;-62
2024/02/15 06:53:40;;;;;;;2.40;1.30;;;16.30;1.00;;;;;;2612687;54;20415;-62
2024/02/15 06:56:08;;;;;;;1.20;1.10;;;16.30;1.00;;;;;;2612241;54;20527;-62
2024/02/15 06:58:34;;;;;;;1.30;1.20;;;16.30;1.00;;;;;;2612996;54;20165;-62
2024/02/15 07:01:00;;;;;;;1.70;1.50;;;16.30;1.00;;;;;;2612698;39;20820;-62
2024/02/15 07:03:29;;;;;;;1.30;1.00;;;16.30;1.00;;;;;;2613045;54;20425;-62
2024/02/15 07:05:56;;;;;;;1.10;1.00;;;16.30;1.00;;;;;;2613223;54;20151;-62
2024/02/15 07:08:24;;;;;;;1.30;1.20;;;16.30;1.00;;;;;;2612747;47;20437;-62
2024/02/15 07:10:51;;;;;;;1.30;1.20;;;16.30;1.00;;;;;;2612126;47;20496;-63
2024/02/15 07:13:17;;;;;;;1.67;1.40;;;16.30;1.00;;;;;;2612235;54;20428;-71
2024/02/15 07:15:44;;;;;;;1.20;1.10;;;16.30;1.00;;;;;;2614095;54;20408;-72
2024/02/15 07:18:12;;;;;;;1.20;1.03;;;16.30;1.00;;;;;;2613854;54;20889;-73
2024/02/15 07:20:37;;;;;;;1.37;1.27;;;16.30;1.00;;;;;;2613676;54;20406;-72
2024/02/15 07:23:05;;;;;;;1.10;1.00;;;16.30;1.00;;;;;;2613481;54;21009;-70
2024/02/15 07:25:31;;;;;;;1.20;1.10;;;16.30;1.00;;;;;;2613048;31;20650;-68
2024/02/15 07:27:56;;;;;;;1.00;0.90;;;16.30;1.00;;;;;;2613072;54;20427;-67
2024/02/15 07:30:22;;;;;;;1.20;1.10;;;16.30;1.00;;;;;;2612601;54;20166;-67
2024/02/15 07:32:49;;;;;;;1.20;1.10;;;16.30;1.00;;;;;;2613248;54;20662;-67
2024/02/15 07:35:17;;;;;;;1.27;1.17;;;16.30;1.00;;;;;;2612373;54;20433;-67
2024/02/15 07:37:53;;;;;;;1.60;1.23;;;16.30;1.00;;;;;;2612992;47;20424;-68
2024/02/15 07:40:21;;;;;;;2.03;1.10;;;16.30;1.00;;;;;;2612342;54;20412;-68
2024/02/15 07:42:47;;;;;;;1.17;1.07;;;16.30;1.00;;;;;;2612973;54;20454;-67
2024/02/15 07:45:13;;;;;;;2.27;1.10;;;16.30;1.00;;;;;;2612277;47;20991;-66
2024/02/15 07:47:39;;;;;;;1.63;1.10;;;16.30;1.00;;;;;;2612830;54;20426;-66
2024/02/15 07:50:05;;;;;;;2.70;1.83;;;16.30;1.00;;;;;;2612561;54;20201;-67
2024/02/15 07:52:31;;;;;;;1.97;1.10;;;16.30;1.00;;;;;;2612675;54;20258;-67
2024/02/15 07:54:56;;;;;;;1.30;1.20;;;16.30;1.00;;;;;;2611125;54;20419;-68
2024/02/15 07:57:22;;;;;;;1.30;1.20;;;16.30;1.00;;;;;;2613018;54;20167;-68
2024/02/15 07:59:49;;;;;;;1.97;1.30;;;16.30;1.00;;;;;;2612960;47;21114;-67
2024/02/15 08:02:18;;;;;;;1.60;1.30;;;16.30;1.00;;;;;;2612725;54;20178;-68
2024/02/15 08:04:44;;;;;;;1.57;1.33;;;16.30;1.00;;;;;;2612092;54;20400;-68
2024/02/15 08:07:10;;;;;;;1.80;1.43;;;16.30;1.00;;;;;;2612718;54;20950;-67
2024/02/15 08:09:37;;;;;;;2.63;1.60;;;16.30;1.00;;;;;;2612590;47;20485;-67
2024/02/15 08:12:03;;;;;;;1.30;1.20;;;16.30;1.00;;;;;;2612916;54;20415;-67
2024/02/15 08:14:29;;;;;;;2.20;1.30;;;16.30;1.00;;;;;;2612643;47;20433;-68
2024/02/15 08:16:55;;;;;;;1.77;1.20;;;16.30;1.00;;;;;;2612886;39;20572;-67
2024/02/15 08:19:22;;;;;;;1.53;1.43;;;16.30;1.00;;;;;;2612911;54;20502;-67
2024/02/15 08:21:50;;;;;;;1.40;1.27;;;16.30;1.00;;;;;;2612089;39;20910;-67
2024/02/15 08:24:16;;;;;;;1.57;1.10;;;16.30;1.00;;;;;;2612506;54;20533;-59
2024/02/15 08:26:42;;;;;;;1.17;1.00;;;16.30;1.00;;;;;;2612570;54;20408;-60
2024/02/15 08:29:13;;;;;;;1.83;1.40;;;16.30;1.00;;;;;;2611789;47;20836;-59
2024/02/15 08:31:39;;;;;;;1.30;1.00;;;16.30;1.00;;;;;;2612943;39;20821;-58
2024/02/15 08:34:10;;;;;;;1.20;1.10;;;16.30;1.00;;;;;;2613207;54;20444;-71
2024/02/15 08:36:36;;;;;;;0.90;0.80;;;16.30;1.00;;;;;;2613085;39;20654;-72
2024/02/15 08:39:04;;;;;;;1.57;1.27;;;16.30;1.00;;;;;;2613626;54;20987;-71
2024/02/15 08:41:30;;;;;;;1.83;0.90;;;16.30;1.00;;;;;;2614430;54;20529;-72
2024/02/15 08:44:00;;;;;;;1.40;1.30;;;16.30;1.00;;;;;;2613515;54;20404;-72
2024/02/15 08:46:27;;;;;;;1.43;1.30;;;16.30;1.00;;;;;;2614417;54;20261;-70
2024/02/15 08:48:52;;;;;;;1.33;1.20;;;16.30;1.00;;;;;;2613849;54;20430;-71
2024/02/15 08:51:20;;;;;;;1.40;1.30;;;16.30;1.00;;;;;;2613760;54;20948;-72
2024/02/15 08:53:46;;;;;;;1.53;1.20;;;16.30;1.00;;;;;;2613913;54;20250;-73
2024/02/15 08:56:12;;;;;;;1.30;1.20;;;16.30;1.00;;;;;;2612667;39;20696;-72
2024/02/15 08:58:39;;;;;;;1.97;1.40;;;16.30;1.00;;;;;;2612863;47;20527;-72
2024/02/15 09:01:07;;;;;;;1.37;1.20;;;16.30;1.00;;;;;;2613026;54;20798;-71
2024/02/15 09:03:32;;;;;;;1.17;1.07;;;16.30;1.00;;;;;;2614100;54;20594;-72
2024/02/15 09:06:02;;;;;;;1.30;1.10;;;16.30;1.00;;;;;;2613135;54;20405;-72
2024/02/15 09:08:29;;;;;;;1.83;1.07;;;16.30;1.00;;;;;;2613090;54;20166;-72
2024/02/15 09:10:55;;;;;;;1.30;1.20;;;16.30;1.00;;;;;;2613850;39;20998;-73
2024/02/15 09:13:22;;;;;;;1.83;1.40;;;16.30;1.00;;;;;;2613795;54;20452;-66
2024/02/15 09:15:48;;;;;;;1.30;1.00;;;16.30;1.00;;;;;;2614133;31;20659;-67
2024/02/15 09:18:13;;;;;;;1.30;1.20;;;16.30;1.00;;;;;;2613083;54;20456;-67
2024/02/15 09:20:44;;;;;;;1.40;1.30;;;16.40;1.00;;;;;;2612787;54;20154;-67
2024/02/15 09:23:12;;;;;;;1.73;1.40;;;16.30;1.00;;;;;;2612837;47;20175;-65
2024/02/15 09:25:43;;;;;;;1.63;1.40;;;16.30;1.00;;;;;;2612886;54;20439;-67
2024/02/15 09:28:09;;;;;;;1.13;1.03;;;16.40;1.00;;;;;;2613607;54;20440;-68
2024/02/15 09:30:35;;;;;;;1.20;1.10;;;16.40;1.00;;;;;;2613458;54;21012;-67
2024/02/15 09:33:04;;;;;;;1.40;1.30;;;16.40;1.00;;;;;;2613443;54;20411;-68
2024/02/15 09:35:31;;;;;;;1.13;1.03;;;16.40;1.00;;;;;;2612987;54;20197;-66
2024/02/15 09:37:56;;;;;;;1.10;1.00;;;16.40;1.00;;;;;;2613358;54;20406;-67
2024/02/15 09:40:26;;;;;;;1.77;1.20;;;16.40;1.00;;;;;;2613278;54;20415;-66
2024/02/15 09:42:52;;;;;;;1.53;1.43;;;16.40;1.00;;;;;;2612349;54;20178;-66
2024/02/15 09:45:20;;;;;;;1.10;1.00;;;16.40;1.00;;;;;;2613620;54;20421;-65
2024/02/15 09:47:48;;;;;;;1.10;1.00;;;16.40;1.00;;;;;;2613817;39;20846;-66
2024/02/15 09:50:16;;;;;;;2.07;1.50;;;16.40;1.00;;;;;;2613337;47;20417;-66
2024/02/15 09:52:52;;;;;;;1.07;1.00;;;16.50;1.00;;;;;;2613716;39;20788;-65
2024/02/15 09:55:19;;;;;;;1.73;1.43;;;16.40;1.00;;;;;;2611547;54;20392;-66
2024/02/15 09:57:46;;;;;;;1.63;1.20;;;16.40;1.00;;;;;;2614085;39;20852;-66
2024/02/15 10:00:13;;;;;;;1.20;1.00;;;16.40;1.00;;;;;;2613774;39;20914;-66
2024/02/15 10:02:40;;;;;;;1.10;1.00;;;16.40;1.00;;;;;;2612807;54;20404;-66
2024/02/15 10:05:11;;;;;;;2.60;1.20;;;16.40;1.00;;;;;;2613310;39;20887;-66
2024/02/15 10:07:38;;;;;;;1.10;1.00;;;16.40;1.00;;;;;;2613397;54;20491;-65
2024/02/15 10:10:23;;;;;;;1.30;1.20;;;16.40;1.00;;;;;;2612715;54;20432;-66
2024/02/15 10:12:56;;;;;;;1.50;1.40;;;16.40;1.00;;;;;;2613385;54;20392;-66
2024/02/15 10:15:35;;;;;;;1.13;1.03;;;16.40;1.00;;;;;;2613519;54;20396;-65
2024/02/15 10:18:02;;;;;;;1.60;1.40;;;16.40;1.00;;;;;;2612806;47;20426;-65
2024/02/15 10:20:28;;;;;;;2.90;1.30;;;16.40;1.00;;;;;;2613268;39;20908;-66
2024/02/15 10:23:00;;;;;;;1.30;1.20;;;16.40;1.00;;;;;;2613104;47;20425;-66
2024/02/15 10:25:29;;;;;;;2.87;1.53;;;16.40;1.00;;;;;;2613260;54;20507;-66
2024/02/15 10:28:11;;;;;;;1.20;1.10;;;16.40;1.00;;;;;;2612241;47;20420;-66
2024/02/15 10:30:38;;;;;;;1.40;1.10;;;16.40;1.00;;;;;;2613211;54;20407;-67
2024/02/15 10:33:05;;;;;;;2.30;1.50;;;16.40;1.00;;;;;;2613173;54;20370;-67
2024/02/15 10:35:34;;;;;;;1.43;1.33;;;16.50;1.00;;;;;;2613671;54;20439;-67
2024/02/15 10:38:08;;;;;;;1.80;1.50;;;16.50;1.00;;;;;;2613116;47;20427;-67
2024/02/15 10:40:34;;;;;;;1.37;1.10;;;16.50;1.00;;;;;;2613311;54;20375;-67
2024/02/15 10:43:02;;;;;;;1.83;1.30;;;16.50;1.00;;;;;;2613205;54;20418;-67
2024/02/15 10:45:30;;;;;;;1.30;1.20;;;16.50;1.00;;;;;;2613757;54;20406;-72
2024/02/15 10:47:57;;;;;;;1.20;1.10;;;16.50;1.00;;;;;;2612481;54;20996;-72
2024/02/15 10:50:23;;;;;;;1.30;1.20;;;16.50;1.00;;;;;;2612522;47;20555;-71
2024/02/15 10:52:57;;;;;;;1.77;1.37;;;16.50;1.00;;;;;;2613175;54;20404;-72
2024/02/15 10:55:41;;;;;;;1.40;1.30;;;16.50;1.00;;;;;;2612052;54;20809;-68
2024/02/15 10:58:07;;;;;;;1.20;1.10;;;16.50;1.00;;;;;;2613205;54;20412;-66
2024/02/15 11:00:37;;;;;;;3.30;1.50;;;16.50;1.00;;;;;;2613455;54;20412;-67
2024/02/15 11:03:07;;;;;;;1.53;1.43;;;16.50;1.00;;;;;;2612559;54;20431;-67
2024/02/15 11:05:34;;;;;;;2.00;1.30;;;16.50;1.00;;;;;;2612757;54;20427;-68
2024/02/15 11:08:06;;;;;;;1.30;1.20;;;16.50;1.00;;;;;;2612587;54;20424;-67
2024/02/15 11:10:32;;;;;;;1.30;1.20;;;16.50;1.00;;;;;;2613116;54;20407;-67
2024/02/15 11:12:59;;;;;;;1.47;1.30;;;16.50;1.00;;;;;;2613414;54;20409;-67
2024/02/15 11:15:53;;;;;;;1.50;1.20;;;16.50;1.00;;;;;;2613194;54;21012;-67
2024/02/15 11:18:45;;;;;;;1.60;1.40;;;16.40;1.00;;;;;;2612261;54;20443;-68
2024/02/15 11:21:12;;;;;;;1.40;1.30;;;16.50;1.00;;;;;;2613268;54;20392;-67
2024/02/15 11:23:38;;;;;;;1.10;1.00;;;16.50;1.00;;;;;;2612103;54;20435;-69
2024/02/15 11:26:04;;;;;;;1.30;1.20;;;16.50;1.00;;;;;;2612757;54;20388;-67
2024/02/15 11:28:30;;;;;;;1.30;1.20;;;16.50;1.00;;;;;;2613341;54;20412;-68
2024/02/15 11:30:57;;;;;;;1.67;1.40;;;16.50;1.00;;;;;;2612967;54;20422;-68
2024/02/15 11:33:29;;;;;;;1.50;1.40;;;16.50;1.00;;;;;;2612663;54;20704;-66
2024/02/15 11:36:09;;;;;;;1.57;1.30;;;16.40;1.00;;;;;;2613144;54;20387;-65
2024/02/15 11:38:35;;;;;;;2.07;1.40;;;16.40;1.00;;;;;;2613009;54;20410;-66
2024/02/15 11:41:02;;;;;;;2.07;1.37;;;16.50;1.00;;;;;;2613273;39;20798;-66
2024/02/15 11:43:45;;;;;;;1.20;1.10;;;16.50;1.00;;;;;;2612576;54;20412;-66
2024/02/15 11:46:20;;;;;;;1.43;1.10;;;16.40;1.00;;;;;;2613030;54;20534;-66
2024/02/15 11:48:48;;;;;;;1.43;1.33;;;16.50;1.00;;;;;;2613433;54;20477;-65
2024/02/15 11:51:26;;;;;;;2.00;1.17;;;16.50;1.00;;;;;;2612618;54;20987;-66
2024/02/15 11:54:10;;;;;;;1.77;1.60;;;16.50;1.00;;;;;;2611549;54;20415;-60
2024/02/15 11:56:47;;;;;;;1.60;1.50;;;16.50;1.00;;;;;;2612448;54;20387;-59
2024/02/15 11:59:28;;;;;;;2.20;1.50;;;16.50;1.00;;;;;;2612335;54;20445;-59
2024/02/15 12:18:44;;;;;;;1.17;1.07;;;16.50;1.00;;;;;;2614026;54;20520;-63
2024/02/15 12:21:12;;;;;;;1.50;1.40;;;16.60;1.00;;;;;;2614005;54;20438;-63
2024/02/15 12:23:40;;;;;;;1.50;1.40;;;16.60;1.00;;;;;;2613278;54;20407;-62
2024/02/15 12:26:07;;;;;;;1.47;1.23;;;16.60;1.00;;;;;;2613019;54;20410;-62
2024/02/15 12:28:34;;;;;;;1.60;1.10;;;16.50;1.00;;;;;;2613146;54;20981;-62
2024/02/15 12:31:02;;;;;;;1.10;1.00;;;16.60;1.00;;;;;;2614292;39;20689;-61
2024/02/15 12:33:28;;;;;;;1.53;1.23;;;16.60;1.00;;;;;;2613613;54;20399;-61
2024/02/15 12:36:06;;;;;;;1.77;1.33;;;16.70;1.00;;;;;;2612706;39;20879;-61
2024/02/15 12:38:34;;;;;;;1.63;1.50;;;16.70;1.00;;;;;;2613731;47;20432;-61
2024/02/15 12:41:01;;;;;;;1.40;1.30;;;16.60;1.00;;;;;;2613440;39;20983;-62
2024/02/15 12:43:28;;;;;;;1.73;1.30;;;16.70;1.00;;;;;;2612436;54;20410;-71
2024/02/15 12:45:54;;;;;;;2.00;1.43;;;16.70;1.00;;;;;;2614315;54;20417;-72
2024/02/15 12:48:20;;;;;;;1.50;1.40;;;16.70;1.00;;;;;;2613861;39;20869;-71
2024/02/15 12:50:46;;;;;;;1.53;1.30;;;16.70;1.00;;;;;;2613212;47;21338;-72
2024/02/15 12:53:11;;;;;;;2.20;1.20;;;16.70;1.00;;;;;;2614006;51;20181;-72
2024/02/15 12:55:40;;;;;;;1.40;1.03;;;16.80;1.00;;;;;;2613712;47;21007;-71
2024/02/15 12:58:13;;;;;;;2.60;1.10;;;16.90;1.00;;;;;;2614328;54;20602;-71
2024/02/15 13:00:39;;;;;;;1.20;1.10;;;16.90;1.00;;;;;;2613737;54;20427;-71
2024/02/15 13:03:10;;;;;;;1.40;1.27;;;16.90;1.00;;;;;;2613231;54;20977;-63
2024/02/15 13:05:37;;;;;;;1.20;1.10;;;17.00;1.00;;;;;;2613383;54;20411;-66
2024/02/15 13:08:03;;;;;;;1.50;1.30;;;17.00;1.00;;;;;;2612928;39;21060;-66
2024/02/15 13:10:29;;;;;;;1.37;1.27;;;17.10;1.00;;;;;;2613355;54;20406;-65
2024/02/15 13:12:56;;;;;;;1.67;1.30;;;17.10;1.00;;;;;;2613494;47;20443;-64
2024/02/15 13:15:26;;;;;;;1.20;1.10;;;17.10;1.00;;;;;;2613332;54;20401;-63
2024/02/15 13:17:53;;;;;;;1.63;1.40;;;17.10;1.00;;;;;;2612929;54;20400;-64
2024/02/15 13:20:37;;;;;;;2.03;1.37;;;17.10;1.00;;;;;;2613687;39;20821;-63
2024/02/15 13:23:08;;;;;;;1.23;1.00;;;17.10;1.00;;;;;;2613442;39;20820;-63
2024/02/15 13:25:39;;;;;;;1.50;1.40;;;17.10;1.00;;;;;;2613138;54;20407;-63
2024/02/15 13:28:05;;;;;;;1.87;1.50;;;17.10;1.00;;;;;;2613469;54;20535;-62